sensor_id;sensor_type;location;lat;lon;timestamp;P1;durP1;ratioP1;P2;durP2;ratioP2
21095;SDS011;10706;49.036;12.112;2022-07-22T00:01:33;20.05;;;11.77;;
21095;SDS011;10706;49.036;12.112;2022-07-22T00:03:59;23.15;;;12.23;;
21095;SDS011;10706;49.036;12.112;2022-07-22T00:06:26;18.88;;;10.75;;
21095;SDS011;10706;49.036;12.112;2022-07-22T00:08:52;20.88;;;11.18;;
21095;SDS011;10706;49.036;12.112;2022-07-22T00:11:18;23.08;;;12.07;;
21095;SDS011;10706;49.036;12.112;2022-07-22T00:13:44;18.75;;;11.15;;
21095;SDS011;10706;49.036;12.112;2022-07-22T00:16:11;20.15;;;11.25;;
21095;SDS011;10706;49.036;12.112;2022-07-22T00:18:36;22.98;;;11.93;;
21095;SDS011;10706;49.036;12.112;2022-07-22T00:21:02;20.95;;;12.27;;
21095;SDS011;10706;49.036;12.112;2022-07-22T00:23:28;23.50;;;11.88;;
21095;SDS011;10706;49.036;12.112;2022-07-22T00:25:54;23.10;;;12.07;;
21095;SDS011;10706;49.036;12.112;2022-07-22T00:28:21;18.63;;;10.15;;
21095;SDS011;10706;49.036;12.112;2022-07-22T00:30:47;20.55;;;11.50;;
21095;SDS011;10706;49.036;12.112;2022-07-22T00:33:12;23.55;;;12.88;;
21095;SDS011;10706;49.036;12.112;2022-07-22T00:35:38;20.75;;;11.23;;
21095;SDS011;10706;49.036;12.112;2022-07-22T00:38:04;19.95;;;11.23;;
21095;SDS011;10706;49.036;12.112;2022-07-22T00:40:30;25.88;;;12.18;;
21095;SDS011;10706;49.036;12.112;2022-07-22T00:42:55;21.15;;;11.32;;
21095;SDS011;10706;49.036;12.112;2022-07-22T00:45:21;24.63;;;12.27;;
21095;SDS011;10706;49.036;12.112;2022-07-22T00:47:47;24.63;;;13.18;;
21095;SDS011;10706;49.036;12.112;2022-07-22T00:50:12;21.83;;;12.15;;
21095;SDS011;10706;49.036;12.112;2022-07-22T00:52:40;19.73;;;11.43;;
21095;SDS011;10706;49.036;12.112;2022-07-22T00:55:06;21.20;;;11.77;;
21095;SDS011;10706;49.036;12.112;2022-07-22T00:57:32;24.45;;;11.57;;
21095;SDS011;10706;49.036;12.112;2022-07-22T00:59:58;24.17;;;12.52;;
21095;SDS011;10706;49.036;12.112;2022-07-22T01:02:24;22.35;;;11.55;;
21095;SDS011;10706;49.036;12.112;2022-07-22T01:04:50;19.65;;;11.85;;
21095;SDS011;10706;49.036;12.112;2022-07-22T01:07:16;20.15;;;11.82;;
21095;SDS011;10706;49.036;12.112;2022-07-22T01:09:43;22.60;;;12.65;;
21095;SDS011;10706;49.036;12.112;2022-07-22T01:12:11;20.63;;;11.48;;
21095;SDS011;10706;49.036;12.112;2022-07-22T01:14:37;24.20;;;12.60;;
21095;SDS011;10706;49.036;12.112;2022-07-22T01:17:03;21.00;;;11.90;;
21095;SDS011;10706;49.036;12.112;2022-07-22T01:19:29;19.80;;;11.65;;
21095;SDS011;10706;49.036;12.112;2022-07-22T01:21:55;18.38;;;11.02;;
21095;SDS011;10706;49.036;12.112;2022-07-22T01:24:22;22.60;;;12.10;;
21095;SDS011;10706;49.036;12.112;2022-07-22T01:26:47;21.85;;;11.52;;
21095;SDS011;10706;49.036;12.112;2022-07-22T01:29:14;22.90;;;11.55;;
21095;SDS011;10706;49.036;12.112;2022-07-22T01:31:39;24.33;;;12.18;;
21095;SDS011;10706;49.036;12.112;2022-07-22T01:34:05;19.10;;;11.80;;
21095;SDS011;10706;49.036;12.112;2022-07-22T01:36:31;20.15;;;11.48;;
21095;SDS011;10706;49.036;12.112;2022-07-22T01:38:57;21.42;;;11.85;;
21095;SDS011;10706;49.036;12.112;2022-07-22T01:41:23;20.40;;;12.07;;
21095;SDS011;10706;49.036;12.112;2022-07-22T01:43:49;20.90;;;12.45;;
21095;SDS011;10706;49.036;12.112;2022-07-22T01:46:15;23.48;;;12.93;;
21095;SDS011;10706;49.036;12.112;2022-07-22T01:48:41;20.40;;;11.90;;
21095;SDS011;10706;49.036;12.112;2022-07-22T01:51:07;22.90;;;12.57;;
21095;SDS011;10706;49.036;12.112;2022-07-22T01:53:33;20.30;;;11.85;;
21095;SDS011;10706;49.036;12.112;2022-07-22T01:55:59;23.48;;;13.02;;
21095;SDS011;10706;49.036;12.112;2022-07-22T01:58:25;21.73;;;12.82;;
21095;SDS011;10706;49.036;12.112;2022-07-22T02:00:51;21.83;;;12.93;;
21095;SDS011;10706;49.036;12.112;2022-07-22T02:03:17;22.77;;;12.52;;
21095;SDS011;10706;49.036;12.112;2022-07-22T02:05:43;23.73;;;13.43;;
21095;SDS011;10706;49.036;12.112;2022-07-22T02:08:10;24.10;;;13.73;;
21095;SDS011;10706;49.036;12.112;2022-07-22T02:10:36;22.67;;;13.52;;
21095;SDS011;10706;49.036;12.112;2022-07-22T02:13:03;25.05;;;13.68;;
21095;SDS011;10706;49.036;12.112;2022-07-22T02:15:29;25.65;;;13.68;;
21095;SDS011;10706;49.036;12.112;2022-07-22T02:17:55;24.17;;;13.05;;
21095;SDS011;10706;49.036;12.112;2022-07-22T02:20:21;23.80;;;12.70;;
21095;SDS011;10706;49.036;12.112;2022-07-22T02:22:47;22.98;;;12.82;;
21095;SDS011;10706;49.036;12.112;2022-07-22T02:25:13;20.65;;;11.48;;
21095;SDS011;10706;49.036;12.112;2022-07-22T02:27:39;23.35;;;13.07;;
21095;SDS011;10706;49.036;12.112;2022-07-22T02:30:06;26.73;;;13.88;;
21095;SDS011;10706;49.036;12.112;2022-07-22T02:32:33;24.15;;;12.90;;
21095;SDS011;10706;49.036;12.112;2022-07-22T02:35:00;22.70;;;12.82;;
21095;SDS011;10706;49.036;12.112;2022-07-22T02:37:26;21.02;;;13.00;;
21095;SDS011;10706;49.036;12.112;2022-07-22T02:39:52;20.85;;;12.85;;
21095;SDS011;10706;49.036;12.112;2022-07-22T02:42:17;26.13;;;13.23;;
21095;SDS011;10706;49.036;12.112;2022-07-22T02:44:44;23.40;;;13.13;;
21095;SDS011;10706;49.036;12.112;2022-07-22T02:47:09;23.17;;;12.90;;
21095;SDS011;10706;49.036;12.112;2022-07-22T02:49:35;24.13;;;12.85;;
21095;SDS011;10706;49.036;12.112;2022-07-22T02:52:01;22.95;;;13.80;;
21095;SDS011;10706;49.036;12.112;2022-07-22T02:54:27;23.63;;;13.10;;
21095;SDS011;10706;49.036;12.112;2022-07-22T02:56:53;25.52;;;13.77;;
21095;SDS011;10706;49.036;12.112;2022-07-22T02:59:19;24.70;;;14.32;;
21095;SDS011;10706;49.036;12.112;2022-07-22T03:01:45;27.92;;;13.40;;
21095;SDS011;10706;49.036;12.112;2022-07-22T03:04:11;27.30;;;16.00;;
21095;SDS011;10706;49.036;12.112;2022-07-22T03:06:36;28.58;;;14.55;;
21095;SDS011;10706;49.036;12.112;2022-07-22T03:09:02;25.67;;;13.90;;
21095;SDS011;10706;49.036;12.112;2022-07-22T03:11:29;22.77;;;13.85;;
21095;SDS011;10706;49.036;12.112;2022-07-22T03:13:55;28.95;;;14.90;;
21095;SDS011;10706;49.036;12.112;2022-07-22T03:16:21;22.73;;;13.02;;
21095;SDS011;10706;49.036;12.112;2022-07-22T03:18:46;23.65;;;13.35;;
21095;SDS011;10706;49.036;12.112;2022-07-22T03:21:12;25.20;;;13.88;;
21095;SDS011;10706;49.036;12.112;2022-07-22T03:23:38;23.85;;;13.10;;
21095;SDS011;10706;49.036;12.112;2022-07-22T03:26:03;23.15;;;13.13;;
21095;SDS011;10706;49.036;12.112;2022-07-22T03:28:29;25.27;;;13.90;;
21095;SDS011;10706;49.036;12.112;2022-07-22T03:30:56;24.13;;;12.93;;
21095;SDS011;10706;49.036;12.112;2022-07-22T03:33:21;21.80;;;13.32;;
21095;SDS011;10706;49.036;12.112;2022-07-22T03:35:47;26.13;;;12.98;;
21095;SDS011;10706;49.036;12.112;2022-07-22T03:38:13;26.05;;;13.50;;
21095;SDS011;10706;49.036;12.112;2022-07-22T03:40:39;26.90;;;14.18;;
21095;SDS011;10706;49.036;12.112;2022-07-22T03:43:04;23.75;;;13.75;;
21095;SDS011;10706;49.036;12.112;2022-07-22T03:45:30;24.90;;;13.98;;
21095;SDS011;10706;49.036;12.112;2022-07-22T03:47:56;24.83;;;13.98;;
21095;SDS011;10706;49.036;12.112;2022-07-22T03:50:25;23.52;;;13.30;;
21095;SDS011;10706;49.036;12.112;2022-07-22T03:52:51;28.80;;;13.02;;
21095;SDS011;10706;49.036;12.112;2022-07-22T03:55:16;23.95;;;13.82;;
21095;SDS011;10706;49.036;12.112;2022-07-22T03:57:42;25.05;;;14.57;;
21095;SDS011;10706;49.036;12.112;2022-07-22T04:00:08;21.80;;;13.27;;
21095;SDS011;10706;49.036;12.112;2022-07-22T04:02:34;23.27;;;13.30;;
21095;SDS011;10706;49.036;12.112;2022-07-22T04:05:00;22.75;;;13.35;;
21095;SDS011;10706;49.036;12.112;2022-07-22T04:07:26;20.73;;;13.13;;
21095;SDS011;10706;49.036;12.112;2022-07-22T04:09:52;26.73;;;13.35;;
21095;SDS011;10706;49.036;12.112;2022-07-22T04:12:29;24.30;;;13.60;;
21095;SDS011;10706;49.036;12.112;2022-07-22T04:15:03;28.73;;;14.60;;
21095;SDS011;10706;49.036;12.112;2022-07-22T04:17:31;23.13;;;13.93;;
21095;SDS011;10706;49.036;12.112;2022-07-22T04:19:56;29.38;;;15.98;;
21095;SDS011;10706;49.036;12.112;2022-07-22T04:22:24;26.83;;;14.88;;
21095;SDS011;10706;49.036;12.112;2022-07-22T04:24:50;28.02;;;15.25;;
21095;SDS011;10706;49.036;12.112;2022-07-22T04:27:15;33.13;;;16.58;;
21095;SDS011;10706;49.036;12.112;2022-07-22T04:29:41;27.38;;;15.55;;
21095;SDS011;10706;49.036;12.112;2022-07-22T04:32:07;26.95;;;16.63;;
21095;SDS011;10706;49.036;12.112;2022-07-22T04:34:33;27.42;;;15.27;;
21095;SDS011;10706;49.036;12.112;2022-07-22T04:36:58;27.98;;;15.73;;
21095;SDS011;10706;49.036;12.112;2022-07-22T04:39:24;31.98;;;16.35;;
21095;SDS011;10706;49.036;12.112;2022-07-22T04:41:50;32.72;;;17.13;;
21095;SDS011;10706;49.036;12.112;2022-07-22T04:44:16;28.83;;;16.95;;
21095;SDS011;10706;49.036;12.112;2022-07-22T04:46:41;26.92;;;16.00;;
21095;SDS011;10706;49.036;12.112;2022-07-22T04:49:07;29.42;;;17.30;;
21095;SDS011;10706;49.036;12.112;2022-07-22T04:51:33;30.65;;;16.30;;
21095;SDS011;10706;49.036;12.112;2022-07-22T04:53:58;27.23;;;15.65;;
21095;SDS011;10706;49.036;12.112;2022-07-22T04:56:24;27.75;;;15.75;;
21095;SDS011;10706;49.036;12.112;2022-07-22T04:58:50;26.60;;;14.98;;
21095;SDS011;10706;49.036;12.112;2022-07-22T05:01:16;23.90;;;14.00;;
21095;SDS011;10706;49.036;12.112;2022-07-22T05:03:42;25.90;;;15.02;;
21095;SDS011;10706;49.036;12.112;2022-07-22T05:06:08;30.10;;;14.93;;
21095;SDS011;10706;49.036;12.112;2022-07-22T05:08:34;28.70;;;15.07;;
21095;SDS011;10706;49.036;12.112;2022-07-22T05:11:00;31.55;;;16.10;;
21095;SDS011;10706;49.036;12.112;2022-07-22T05:13:26;25.15;;;15.30;;
21095;SDS011;10706;49.036;12.112;2022-07-22T05:15:52;26.33;;;14.75;;
21095;SDS011;10706;49.036;12.112;2022-07-22T05:18:18;28.77;;;15.52;;
21095;SDS011;10706;49.036;12.112;2022-07-22T05:20:44;30.73;;;16.02;;
21095;SDS011;10706;49.036;12.112;2022-07-22T05:23:09;29.23;;;15.18;;
21095;SDS011;10706;49.036;12.112;2022-07-22T05:25:35;29.35;;;15.80;;
21095;SDS011;10706;49.036;12.112;2022-07-22T05:28:01;27.67;;;15.07;;
21095;SDS011;10706;49.036;12.112;2022-07-22T05:30:27;25.52;;;15.02;;
21095;SDS011;10706;49.036;12.112;2022-07-22T05:32:53;30.40;;;16.08;;
21095;SDS011;10706;49.036;12.112;2022-07-22T05:35:19;26.15;;;15.88;;
21095;SDS011;10706;49.036;12.112;2022-07-22T05:37:45;26.65;;;15.15;;
21095;SDS011;10706;49.036;12.112;2022-07-22T05:40:11;27.33;;;16.20;;
21095;SDS011;10706;49.036;12.112;2022-07-22T05:42:37;28.10;;;16.48;;
21095;SDS011;10706;49.036;12.112;2022-07-22T05:45:03;30.15;;;16.00;;
21095;SDS011;10706;49.036;12.112;2022-07-22T05:47:30;26.17;;;15.20;;
21095;SDS011;10706;49.036;12.112;2022-07-22T05:49:56;27.58;;;16.25;;
21095;SDS011;10706;49.036;12.112;2022-07-22T05:52:21;27.20;;;15.48;;
21095;SDS011;10706;49.036;12.112;2022-07-22T05:54:48;26.98;;;14.32;;
21095;SDS011;10706;49.036;12.112;2022-07-22T05:57:14;26.80;;;15.75;;
21095;SDS011;10706;49.036;12.112;2022-07-22T05:59:39;27.05;;;15.05;;
21095;SDS011;10706;49.036;12.112;2022-07-22T06:02:06;25.08;;;15.13;;
21095;SDS011;10706;49.036;12.112;2022-07-22T06:04:32;25.50;;;15.55;;
21095;SDS011;10706;49.036;12.112;2022-07-22T06:06:58;31.23;;;15.23;;
21095;SDS011;10706;49.036;12.112;2022-07-22T06:09:24;30.67;;;14.55;;
21095;SDS011;10706;49.036;12.112;2022-07-22T06:11:50;27.65;;;15.73;;
21095;SDS011;10706;49.036;12.112;2022-07-22T06:14:16;29.08;;;16.10;;
21095;SDS011;10706;49.036;12.112;2022-07-22T06:16:42;28.70;;;16.33;;
21095;SDS011;10706;49.036;12.112;2022-07-22T06:19:07;30.38;;;15.65;;
21095;SDS011;10706;49.036;12.112;2022-07-22T06:21:33;26.92;;;15.95;;
21095;SDS011;10706;49.036;12.112;2022-07-22T06:23:59;27.50;;;16.00;;
21095;SDS011;10706;49.036;12.112;2022-07-22T06:26:25;28.48;;;15.27;;
21095;SDS011;10706;49.036;12.112;2022-07-22T06:28:51;29.50;;;15.27;;
21095;SDS011;10706;49.036;12.112;2022-07-22T06:31:20;25.70;;;15.25;;
21095;SDS011;10706;49.036;12.112;2022-07-22T06:33:45;24.58;;;14.80;;
21095;SDS011;10706;49.036;12.112;2022-07-22T06:36:11;25.83;;;16.17;;
21095;SDS011;10706;49.036;12.112;2022-07-22T06:38:39;28.58;;;16.77;;
21095;SDS011;10706;49.036;12.112;2022-07-22T06:41:05;30.83;;;17.73;;
21095;SDS011;10706;49.036;12.112;2022-07-22T06:43:31;27.30;;;17.45;;
21095;SDS011;10706;49.036;12.112;2022-07-22T06:45:56;32.25;;;17.33;;
21095;SDS011;10706;49.036;12.112;2022-07-22T06:48:22;31.63;;;18.40;;
21095;SDS011;10706;49.036;12.112;2022-07-22T06:50:48;27.35;;;16.77;;
21095;SDS011;10706;49.036;12.112;2022-07-22T06:53:14;27.80;;;16.85;;
21095;SDS011;10706;49.036;12.112;2022-07-22T06:55:40;30.95;;;17.35;;
21095;SDS011;10706;49.036;12.112;2022-07-22T06:58:05;29.20;;;18.02;;
21095;SDS011;10706;49.036;12.112;2022-07-22T07:00:31;31.05;;;17.00;;
21095;SDS011;10706;49.036;12.112;2022-07-22T07:03:00;28.73;;;17.77;;
21095;SDS011;10706;49.036;12.112;2022-07-22T07:05:26;30.63;;;17.95;;
21095;SDS011;10706;49.036;12.112;2022-07-22T07:07:53;30.77;;;18.48;;
21095;SDS011;10706;49.036;12.112;2022-07-22T07:10:20;29.92;;;16.77;;
21095;SDS011;10706;49.036;12.112;2022-07-22T07:12:46;28.42;;;17.00;;
21095;SDS011;10706;49.036;12.112;2022-07-22T07:15:12;27.40;;;16.33;;
21095;SDS011;10706;49.036;12.112;2022-07-22T07:17:38;27.90;;;16.70;;
21095;SDS011;10706;49.036;12.112;2022-07-22T07:20:05;33.22;;;17.92;;
21095;SDS011;10706;49.036;12.112;2022-07-22T07:22:31;32.28;;;17.63;;
21095;SDS011;10706;49.036;12.112;2022-07-22T07:25:01;28.23;;;16.23;;
21095;SDS011;10706;49.036;12.112;2022-07-22T07:27:32;32.60;;;17.10;;
21095;SDS011;10706;49.036;12.112;2022-07-22T07:29:57;30.48;;;19.70;;
21095;SDS011;10706;49.036;12.112;2022-07-22T07:32:23;27.83;;;17.02;;
21095;SDS011;10706;49.036;12.112;2022-07-22T07:34:49;33.53;;;19.00;;
21095;SDS011;10706;49.036;12.112;2022-07-22T07:37:15;28.33;;;16.17;;
21095;SDS011;10706;49.036;12.112;2022-07-22T07:39:40;29.52;;;17.25;;
21095;SDS011;10706;49.036;12.112;2022-07-22T07:42:06;29.60;;;17.20;;
21095;SDS011;10706;49.036;12.112;2022-07-22T07:44:32;31.58;;;18.52;;
21095;SDS011;10706;49.036;12.112;2022-07-22T07:46:58;30.60;;;16.67;;
21095;SDS011;10706;49.036;12.112;2022-07-22T07:49:24;34.15;;;16.63;;
21095;SDS011;10706;49.036;12.112;2022-07-22T07:51:49;27.17;;;16.65;;
21095;SDS011;10706;49.036;12.112;2022-07-22T07:54:15;27.90;;;16.20;;
21095;SDS011;10706;49.036;12.112;2022-07-22T07:56:41;30.10;;;16.33;;
21095;SDS011;10706;49.036;12.112;2022-07-22T07:59:07;27.92;;;15.63;;
21095;SDS011;10706;49.036;12.112;2022-07-22T08:01:32;26.55;;;15.70;;
21095;SDS011;10706;49.036;12.112;2022-07-22T08:03:58;27.15;;;16.40;;
21095;SDS011;10706;49.036;12.112;2022-07-22T08:06:24;30.08;;;17.30;;
21095;SDS011;10706;49.036;12.112;2022-07-22T08:08:49;29.20;;;16.33;;
21095;SDS011;10706;49.036;12.112;2022-07-22T08:11:15;22.73;;;14.07;;
21095;SDS011;10706;49.036;12.112;2022-07-22T08:13:41;23.48;;;14.35;;
21095;SDS011;10706;49.036;12.112;2022-07-22T08:16:06;22.00;;;12.95;;
21095;SDS011;10706;49.036;12.112;2022-07-22T08:18:32;24.67;;;12.27;;
21095;SDS011;10706;49.036;12.112;2022-07-22T08:20:58;23.73;;;14.20;;
21095;SDS011;10706;49.036;12.112;2022-07-22T08:23:24;26.63;;;12.60;;
21095;SDS011;10706;49.036;12.112;2022-07-22T08:25:50;22.15;;;12.55;;
21095;SDS011;10706;49.036;12.112;2022-07-22T08:28:16;22.65;;;11.65;;
21095;SDS011;10706;49.036;12.112;2022-07-22T08:30:42;22.40;;;11.80;;
21095;SDS011;10706;49.036;12.112;2022-07-22T08:33:08;26.40;;;13.10;;
21095;SDS011;10706;49.036;12.112;2022-07-22T08:35:34;21.05;;;10.85;;
21095;SDS011;10706;49.036;12.112;2022-07-22T08:38:00;18.17;;;8.88;;
21095;SDS011;10706;49.036;12.112;2022-07-22T08:40:26;15.82;;;7.75;;
21095;SDS011;10706;49.036;12.112;2022-07-22T08:42:52;16.73;;;7.95;;
21095;SDS011;10706;49.036;12.112;2022-07-22T08:45:19;16.02;;;6.80;;
21095;SDS011;10706;49.036;12.112;2022-07-22T08:47:46;14.93;;;7.20;;
21095;SDS011;10706;49.036;12.112;2022-07-22T08:50:15;16.30;;;8.40;;
21095;SDS011;10706;49.036;12.112;2022-07-22T08:52:42;16.58;;;8.00;;
21095;SDS011;10706;49.036;12.112;2022-07-22T08:55:08;11.70;;;6.40;;
21095;SDS011;10706;49.036;12.112;2022-07-22T08:57:35;12.80;;;5.65;;
21095;SDS011;10706;49.036;12.112;2022-07-22T09:00:07;12.00;;;5.80;;
21095;SDS011;10706;49.036;12.112;2022-07-22T09:02:37;16.80;;;7.43;;
21095;SDS011;10706;49.036;12.112;2022-07-22T09:05:05;14.98;;;6.22;;
21095;SDS011;10706;49.036;12.112;2022-07-22T09:07:34;11.88;;;5.57;;
21095;SDS011;10706;49.036;12.112;2022-07-22T09:10:06;16.27;;;6.25;;
21095;SDS011;10706;49.036;12.112;2022-07-22T09:12:56;11.23;;;5.18;;
21095;SDS011;10706;49.036;12.112;2022-07-22T09:15:28;15.93;;;7.40;;
21095;SDS011;10706;49.036;12.112;2022-07-22T09:18:01;17.55;;;8.35;;
21095;SDS011;10706;49.036;12.112;2022-07-22T09:20:28;17.58;;;8.55;;
21095;SDS011;10706;49.036;12.112;2022-07-22T09:22:55;19.00;;;9.55;;
21095;SDS011;10706;49.036;12.112;2022-07-22T09:30:33;16.42;;;8.50;;
21095;SDS011;10706;49.036;12.112;2022-07-22T09:33:15;17.00;;;8.48;;
21095;SDS011;10706;49.036;12.112;2022-07-22T09:35:41;15.68;;;8.88;;
21095;SDS011;10706;49.036;12.112;2022-07-22T09:38:09;19.90;;;9.45;;
21095;SDS011;10706;49.036;12.112;2022-07-22T09:40:44;16.10;;;8.45;;
21095;SDS011;10706;49.036;12.112;2022-07-22T09:43:15;19.02;;;9.23;;
21095;SDS011;10706;49.036;12.112;2022-07-22T09:45:54;18.52;;;9.55;;
21095;SDS011;10706;49.036;12.112;2022-07-22T09:48:22;17.27;;;8.57;;
21095;SDS011;10706;49.036;12.112;2022-07-22T09:50:48;18.08;;;9.00;;
21095;SDS011;10706;49.036;12.112;2022-07-22T09:53:17;16.20;;;8.68;;
21095;SDS011;10706;49.036;12.112;2022-07-22T09:55:46;18.35;;;9.02;;
21095;SDS011;10706;49.036;12.112;2022-07-22T09:58:12;19.27;;;8.85;;
21095;SDS011;10706;49.036;12.112;2022-07-22T10:00:39;21.08;;;8.73;;
21095;SDS011;10706;49.036;12.112;2022-07-22T10:03:07;14.80;;;9.02;;
21095;SDS011;10706;49.036;12.112;2022-07-22T10:05:38;16.75;;;9.57;;
21095;SDS011;10706;49.036;12.112;2022-07-22T10:08:06;18.77;;;9.38;;
21095;SDS011;10706;49.036;12.112;2022-07-22T10:10:34;18.48;;;10.18;;
21095;SDS011;10706;49.036;12.112;2022-07-22T10:13:03;17.20;;;9.25;;
21095;SDS011;10706;49.036;12.112;2022-07-22T10:15:31;18.13;;;8.55;;
21095;SDS011;10706;49.036;12.112;2022-07-22T10:17:59;18.45;;;9.13;;
21095;SDS011;10706;49.036;12.112;2022-07-22T10:20:29;18.17;;;8.65;;
21095;SDS011;10706;49.036;12.112;2022-07-22T10:22:57;18.48;;;9.55;;
21095;SDS011;10706;49.036;12.112;2022-07-22T10:25:27;16.25;;;8.18;;
21095;SDS011;10706;49.036;12.112;2022-07-22T10:28:20;16.50;;;8.60;;
21095;SDS011;10706;49.036;12.112;2022-07-22T10:33:53;17.05;;;8.05;;
21095;SDS011;10706;49.036;12.112;2022-07-22T10:41:42;16.55;;;9.43;;
21095;SDS011;10706;49.036;12.112;2022-07-22T10:44:10;16.50;;;9.32;;
21095;SDS011;10706;49.036;12.112;2022-07-22T10:46:47;18.27;;;8.30;;
21095;SDS011;10706;49.036;12.112;2022-07-22T10:49:16;16.92;;;8.02;;
21095;SDS011;10706;49.036;12.112;2022-07-22T10:52:17;17.55;;;8.10;;
21095;SDS011;10706;49.036;12.112;2022-07-22T10:57:43;15.68;;;7.45;;
21095;SDS011;10706;49.036;12.112;2022-07-22T11:00:08;14.75;;;8.00;;
21095;SDS011;10706;49.036;12.112;2022-07-22T11:02:35;15.52;;;7.90;;
21095;SDS011;10706;49.036;12.112;2022-07-22T11:05:03;15.27;;;7.47;;
21095;SDS011;10706;49.036;12.112;2022-07-22T11:07:30;19.17;;;8.55;;
21095;SDS011;10706;49.036;12.112;2022-07-22T11:10:10;14.48;;;8.25;;
21095;SDS011;10706;49.036;12.112;2022-07-22T11:12:42;14.82;;;7.93;;
21095;SDS011;10706;49.036;12.112;2022-07-22T11:15:08;14.10;;;7.97;;
21095;SDS011;10706;49.036;12.112;2022-07-22T11:17:35;13.07;;;7.38;;
21095;SDS011;10706;49.036;12.112;2022-07-22T11:20:09;14.68;;;7.38;;
21095;SDS011;10706;49.036;12.112;2022-07-22T11:22:38;16.90;;;7.00;;
21095;SDS011;10706;49.036;12.112;2022-07-22T11:25:05;14.23;;;7.10;;
21095;SDS011;10706;49.036;12.112;2022-07-22T11:27:33;15.02;;;7.03;;
21095;SDS011;10706;49.036;12.112;2022-07-22T11:30:00;17.65;;;7.65;;
21095;SDS011;10706;49.036;12.112;2022-07-22T11:32:28;13.52;;;7.05;;
21095;SDS011;10706;49.036;12.112;2022-07-22T11:34:58;15.00;;;7.68;;
21095;SDS011;10706;49.036;12.112;2022-07-22T11:37:27;13.38;;;7.20;;
21095;SDS011;10706;49.036;12.112;2022-07-22T11:40:00;13.45;;;7.00;;
21095;SDS011;10706;49.036;12.112;2022-07-22T11:42:31;15.60;;;7.40;;
21095;SDS011;10706;49.036;12.112;2022-07-22T11:44:57;15.20;;;6.95;;
21095;SDS011;10706;49.036;12.112;2022-07-22T11:47:24;13.75;;;6.93;;
21095;SDS011;10706;49.036;12.112;2022-07-22T11:49:50;15.85;;;7.50;;
21095;SDS011;10706;49.036;12.112;2022-07-22T11:52:16;15.82;;;7.40;;
21095;SDS011;10706;49.036;12.112;2022-07-22T11:54:45;15.18;;;7.15;;
21095;SDS011;10706;49.036;12.112;2022-07-22T11:57:14;14.07;;;7.35;;
21095;SDS011;10706;49.036;12.112;2022-07-22T11:59:40;20.70;;;8.80;;
21095;SDS011;10706;49.036;12.112;2022-07-22T12:02:06;16.48;;;7.28;;
21095;SDS011;10706;49.036;12.112;2022-07-22T12:04:34;14.13;;;7.43;;
21095;SDS011;10706;49.036;12.112;2022-07-22T12:07:01;12.73;;;6.30;;
21095;SDS011;10706;49.036;12.112;2022-07-22T12:09:30;11.88;;;6.75;;
21095;SDS011;10706;49.036;12.112;2022-07-22T12:11:59;13.45;;;6.60;;
21095;SDS011;10706;49.036;12.112;2022-07-22T12:14:27;14.25;;;6.65;;
21095;SDS011;10706;49.036;12.112;2022-07-22T12:16:56;13.55;;;6.53;;
21095;SDS011;10706;49.036;12.112;2022-07-22T12:19:35;11.15;;;6.05;;
21095;SDS011;10706;49.036;12.112;2022-07-22T12:22:03;15.13;;;6.45;;
21095;SDS011;10706;49.036;12.112;2022-07-22T12:24:35;11.70;;;6.13;;
21095;SDS011;10706;49.036;12.112;2022-07-22T12:27:07;11.70;;;6.22;;
21095;SDS011;10706;49.036;12.112;2022-07-22T12:32:05;13.75;;;6.40;;
21095;SDS011;10706;49.036;12.112;2022-07-22T12:34:47;16.05;;;6.68;;
21095;SDS011;10706;49.036;12.112;2022-07-22T12:37:20;11.40;;;6.07;;
21095;SDS011;10706;49.036;12.112;2022-07-22T12:42:30;11.88;;;6.25;;
21095;SDS011;10706;49.036;12.112;2022-07-22T12:47:38;13.57;;;6.38;;
21095;SDS011;10706;49.036;12.112;2022-07-22T12:53:09;11.38;;;5.60;;
21095;SDS011;10706;49.036;12.112;2022-07-22T12:55:58;11.02;;;6.70;;
21095;SDS011;10706;49.036;12.112;2022-07-22T12:58:26;14.10;;;6.88;;
21095;SDS011;10706;49.036;12.112;2022-07-22T13:00:56;11.52;;;6.50;;
21095;SDS011;10706;49.036;12.112;2022-07-22T13:03:24;13.70;;;6.40;;
21095;SDS011;10706;49.036;12.112;2022-07-22T13:05:55;13.13;;;7.50;;
21095;SDS011;10706;49.036;12.112;2022-07-22T13:08:24;15.88;;;6.43;;
21095;SDS011;10706;49.036;12.112;2022-07-22T13:10:51;12.27;;;6.18;;
21095;SDS011;10706;49.036;12.112;2022-07-22T13:13:18;11.73;;;6.10;;
21095;SDS011;10706;49.036;12.112;2022-07-22T13:15:45;13.00;;;6.40;;
21095;SDS011;10706;49.036;12.112;2022-07-22T13:18:12;12.70;;;5.50;;
21095;SDS011;10706;49.036;12.112;2022-07-22T13:20:38;13.35;;;6.45;;
21095;SDS011;10706;49.036;12.112;2022-07-22T13:23:04;12.68;;;6.68;;
21095;SDS011;10706;49.036;12.112;2022-07-22T13:25:30;11.13;;;6.15;;
21095;SDS011;10706;49.036;12.112;2022-07-22T13:27:57;15.43;;;6.88;;
21095;SDS011;10706;49.036;12.112;2022-07-22T13:30:24;14.43;;;7.40;;
21095;SDS011;10706;49.036;12.112;2022-07-22T13:32:50;11.98;;;6.95;;
21095;SDS011;10706;49.036;12.112;2022-07-22T13:35:17;12.10;;;6.90;;
21095;SDS011;10706;49.036;12.112;2022-07-22T13:37:44;13.40;;;6.60;;
21095;SDS011;10706;49.036;12.112;2022-07-22T13:43:33;14.32;;;6.20;;
21095;SDS011;10706;49.036;12.112;2022-07-22T13:53:11;13.50;;;6.20;;
21095;SDS011;10706;49.036;12.112;2022-07-22T14:02:17;14.77;;;6.80;;
21095;SDS011;10706;49.036;12.112;2022-07-22T14:04:49;12.95;;;6.78;;
21095;SDS011;10706;49.036;12.112;2022-07-22T14:07:38;12.32;;;6.53;;
21095;SDS011;10706;49.036;12.112;2022-07-22T14:10:10;13.95;;;6.43;;
21095;SDS011;10706;49.036;12.112;2022-07-22T14:12:39;13.38;;;6.55;;
21095;SDS011;10706;49.036;12.112;2022-07-22T14:15:07;12.88;;;6.55;;
21095;SDS011;10706;49.036;12.112;2022-07-22T14:17:34;11.88;;;6.40;;
21095;SDS011;10706;49.036;12.112;2022-07-22T14:20:00;14.30;;;6.25;;
21095;SDS011;10706;49.036;12.112;2022-07-22T14:22:26;12.77;;;6.25;;
21095;SDS011;10706;49.036;12.112;2022-07-22T14:24:52;15.27;;;5.70;;
21095;SDS011;10706;49.036;12.112;2022-07-22T14:27:18;13.52;;;6.00;;
21095;SDS011;10706;49.036;12.112;2022-07-22T14:29:43;11.98;;;6.00;;
21095;SDS011;10706;49.036;12.112;2022-07-22T14:32:09;10.65;;;5.40;;
21095;SDS011;10706;49.036;12.112;2022-07-22T14:34:35;12.48;;;6.57;;
21095;SDS011;10706;49.036;12.112;2022-07-22T14:37:01;12.05;;;6.18;;
21095;SDS011;10706;49.036;12.112;2022-07-22T14:39:26;13.07;;;6.30;;
21095;SDS011;10706;49.036;12.112;2022-07-22T14:41:53;11.60;;;6.20;;
21095;SDS011;10706;49.036;12.112;2022-07-22T14:44:18;11.55;;;6.38;;
21095;SDS011;10706;49.036;12.112;2022-07-22T14:46:44;12.52;;;6.80;;
21095;SDS011;10706;49.036;12.112;2022-07-22T14:49:10;13.57;;;6.70;;
21095;SDS011;10706;49.036;12.112;2022-07-22T14:51:36;12.32;;;5.80;;
21095;SDS011;10706;49.036;12.112;2022-07-22T14:54:01;12.88;;;6.72;;
21095;SDS011;10706;49.036;12.112;2022-07-22T14:56:27;14.15;;;6.00;;
21095;SDS011;10706;49.036;12.112;2022-07-22T15:01:58;11.43;;;5.78;;